Time;durP1;ratioP1;P1;durP2;ratioP2;P2;SDS_P1;SDS_P2;PMS_P1;PMS_P2;Temp;Humidity;BMP_temperature;BMP_pressure;BME280_temperature;BME280_humidity;BME280_pressure;Samples;Min_cycle;Max_cycle;Signal;HPM_P1;HPM_P2
2023/12/03 00:00:07;;;;;;;15.00;9.10;;;;;;;;;;8277483;28;20776;-57
2023/12/03 00:04:07;;;;;;;16.95;9.93;;;;;;;;;;8282632;28;20057;-57
2023/12/03 00:08:08;;;;;;;17.17;9.90;;;;;;;;;;8281639;28;20104;-56
2023/12/03 00:12:08;;;;;;;17.30;9.98;;;;;;;;;;8282303;28;20029;-57
2023/12/03 00:16:09;;;;;;;17.38;10.07;;;;;;;;;;8280673;28;21133;-57
2023/12/03 00:20:09;;;;;;;16.55;10.43;;;;;;;;;;8280925;28;20040;-59
2023/12/03 00:24:09;;;;;;;18.50;10.65;;;;;;;;;;8280407;28;20037;-56
2023/12/03 00:28:10;;;;;;;19.00;11.18;;;;;;;;;;8277644;28;20025;-56
2023/12/03 00:32:10;;;;;;;16.00;9.75;;;;;;;;;;8276433;28;20048;-55
2023/12/03 00:36:10;;;;;;;14.73;9.18;;;;;;;;;;8275919;28;20033;-56
2023/12/03 00:40:11;;;;;;;13.07;8.38;;;;;;;;;;8285090;28;20091;-56
2023/12/03 00:44:11;;;;;;;14.18;8.50;;;;;;;;;;8281935;28;20021;-57
2023/12/03 00:48:11;;;;;;;16.73;10.00;;;;;;;;;;8281672;28;20048;-57
2023/12/03 00:52:11;;;;;;;17.98;11.05;;;;;;;;;;8281597;28;20025;-58
2023/12/03 00:56:11;;;;;;;24.20;14.82;;;;;;;;;;8286867;28;20032;-57
2023/12/03 01:00:12;;;;;;;21.98;11.55;;;;;;;;;;8282221;28;20064;-56
2023/12/03 01:04:12;;;;;;;22.92;12.70;;;;;;;;;;8284657;28;20033;-56
2023/12/03 01:08:12;;;;;;;21.77;12.20;;;;;;;;;;8286493;28;20058;-57
2023/12/03 01:12:13;;;;;;;24.70;13.80;;;;;;;;;;8282450;28;20058;-57
2023/12/03 01:16:14;;;;;;;24.02;13.70;;;;;;;;;;8284114;28;20060;-57
2023/12/03 01:20:14;;;;;;;23.05;13.13;;;;;;;;;;8275902;28;20034;-57
2023/12/03 01:24:14;;;;;;;20.13;11.65;;;;;;;;;;8285971;28;20090;-57
2023/12/03 01:28:19;;;;;;;20.98;10.75;;;;;;;;;;8287346;28;20024;-57
2023/12/03 01:32:19;;;;;;;17.40;10.65;;;;;;;;;;8282013;28;20284;-57
2023/12/03 01:36:20;;;;;;;20.38;11.05;;;;;;;;;;8285555;28;20528;-57
2023/12/03 01:40:20;;;;;;;18.33;12.20;;;;;;;;;;8285178;28;20067;-55
2023/12/03 01:44:20;;;;;;;21.15;11.98;;;;;;;;;;8281388;28;20029;-56
2023/12/03 01:48:20;;;;;;;19.52;11.30;;;;;;;;;;8283164;28;20148;-56
2023/12/03 01:52:22;;;;;;;19.48;10.70;;;;;;;;;;8276756;28;20276;-57
2023/12/03 01:56:23;;;;;;;19.88;12.10;;;;;;;;;;8279564;28;20810;-56
2023/12/03 02:00:23;;;;;;;20.63;12.45;;;;;;;;;;8278269;28;20515;-55
2023/12/03 02:04:23;;;;;;;17.52;10.45;;;;;;;;;;8276741;28;20021;-55
2023/12/03 02:08:23;;;;;;;20.33;11.05;;;;;;;;;;8282488;28;20055;-55
2023/12/03 02:12:24;;;;;;;22.58;12.75;;;;;;;;;;8284667;28;20088;-54
2023/12/03 02:16:24;;;;;;;16.13;9.77;;;;;;;;;;8283048;28;20121;-55
2023/12/03 02:20:24;;;;;;;17.15;10.57;;;;;;;;;;8283593;28;20520;-56
2023/12/03 02:24:24;;;;;;;16.08;9.68;;;;;;;;;;8283792;28;20079;-55
2023/12/03 02:28:24;;;;;;;16.27;9.95;;;;;;;;;;8284976;28;20038;-55
2023/12/03 02:32:25;;;;;;;20.10;11.45;;;;;;;;;;8282280;28;20077;-54
2023/12/03 02:36:26;;;;;;;21.02;11.10;;;;;;;;;;8281863;28;20037;-56
2023/12/03 02:40:26;;;;;;;25.38;15.07;;;;;;;;;;8277929;28;20132;-56
2023/12/03 02:44:26;;;;;;;22.92;12.93;;;;;;;;;;8282359;28;20144;-56
2023/12/03 02:48:26;;;;;;;21.15;12.73;;;;;;;;;;8279721;28;20153;-56
2023/12/03 02:52:27;;;;;;;24.20;12.50;;;;;;;;;;8281820;28;20028;-55
2023/12/03 02:56:27;;;;;;;24.38;12.88;;;;;;;;;;8282238;28;20647;-56
2023/12/03 03:00:27;;;;;;;22.75;13.05;;;;;;;;;;8285582;28;20027;-57
2023/12/03 03:04:27;;;;;;;21.88;13.43;;;;;;;;;;8286584;28;20029;-57
2023/12/03 03:08:27;;;;;;;22.23;12.50;;;;;;;;;;8285788;28;20052;-57
2023/12/03 03:12:28;;;;;;;22.90;12.65;;;;;;;;;;8281034;28;20283;-56
2023/12/03 03:16:28;;;;;;;20.30;12.18;;;;;;;;;;8282642;28;20028;-56
2023/12/03 03:20:29;;;;;;;21.48;13.15;;;;;;;;;;8282945;28;20111;-57
2023/12/03 03:24:30;;;;;;;23.35;12.75;;;;;;;;;;8282424;28;20657;-57
2023/12/03 03:28:30;;;;;;;25.75;13.02;;;;;;;;;;8266390;28;20143;-57
2023/12/03 03:32:30;;;;;;;20.63;12.05;;;;;;;;;;8281470;28;20076;-57
2023/12/03 03:36:30;;;;;;;21.60;12.13;;;;;;;;;;8280218;28;20017;-57
2023/12/03 03:40:30;;;;;;;18.67;11.15;;;;;;;;;;8281018;28;20152;-56
2023/12/03 03:44:31;;;;;;;18.13;10.43;;;;;;;;;;8277723;28;20124;-57
2023/12/03 03:48:31;;;;;;;16.33;10.43;;;;;;;;;;8280180;28;20406;-58
2023/12/03 03:52:31;;;;;;;17.88;11.20;;;;;;;;;;8279482;28;20025;-56
2023/12/03 03:56:32;;;;;;;18.48;11.00;;;;;;;;;;8263458;28;20033;-57
2023/12/03 04:00:32;;;;;;;17.00;10.13;;;;;;;;;;8274325;28;20065;-57
2023/12/03 04:04:32;;;;;;;16.67;10.38;;;;;;;;;;8276750;28;20063;-56
2023/12/03 04:08:33;;;;;;;26.17;13.80;;;;;;;;;;8278304;28;20268;-57
2023/12/03 04:12:34;;;;;;;24.20;12.73;;;;;;;;;;8280545;28;20029;-57
2023/12/03 04:16:34;;;;;;;23.35;13.85;;;;;;;;;;8278799;28;20037;-57
2023/12/03 04:20:35;;;;;;;28.52;15.77;;;;;;;;;;8262546;28;20035;-56
2023/12/03 04:24:35;;;;;;;24.52;12.98;;;;;;;;;;8280379;28;20033;-56
2023/12/03 04:28:38;;;;;;;31.50;17.13;;;;;;;;;;8273998;28;20036;-57
2023/12/03 04:32:38;;;;;;;31.05;15.85;;;;;;;;;;8278158;28;20052;-58
2023/12/03 04:36:41;;;;;;;29.98;15.88;;;;;;;;;;8278167;28;20029;-57
2023/12/03 04:40:41;;;;;;;35.92;17.10;;;;;;;;;;8273954;28;20274;-59
2023/12/03 04:44:41;;;;;;;32.50;16.52;;;;;;;;;;8276812;28;20047;-57
2023/12/03 04:48:42;;;;;;;35.72;18.42;;;;;;;;;;8274074;28;20277;-59
2023/12/03 04:52:43;;;;;;;32.83;16.10;;;;;;;;;;8274961;28;20028;-58
2023/12/03 04:56:43;;;;;;;35.60;17.30;;;;;;;;;;8278314;28;20033;-57
2023/12/03 05:00:43;;;;;;;31.55;16.02;;;;;;;;;;8272387;28;20039;-57
2023/12/03 05:04:44;;;;;;;32.03;16.23;;;;;;;;;;8274099;28;20049;-57
2023/12/03 05:08:44;;;;;;;29.48;15.85;;;;;;;;;;8277159;28;20264;-58
2023/12/03 05:12:44;;;;;;;31.50;15.52;;;;;;;;;;8273279;28;20090;-58
2023/12/03 05:16:44;;;;;;;25.88;14.02;;;;;;;;;;8278701;28;20040;-58
2023/12/03 05:20:44;;;;;;;28.83;15.07;;;;;;;;;;8280984;28;20028;-56
2023/12/03 05:24:45;;;;;;;28.75;14.65;;;;;;;;;;8278285;28;20029;-59
2023/12/03 05:28:45;;;;;;;26.10;14.52;;;;;;;;;;8280768;28;20024;-58
2023/12/03 05:32:45;;;;;;;32.72;14.55;;;;;;;;;;8279036;28;20048;-57
2023/12/03 05:36:46;;;;;;;27.92;14.75;;;;;;;;;;8278654;28;20276;-56
2023/12/03 05:40:46;;;;;;;23.80;13.13;;;;;;;;;;8274682;28;20029;-56
2023/12/03 05:44:46;;;;;;;25.13;13.05;;;;;;;;;;8276229;28;20279;-57
2023/12/03 05:48:46;;;;;;;24.15;13.05;;;;;;;;;;8273092;28;20083;-57
2023/12/03 05:52:47;;;;;;;28.05;14.23;;;;;;;;;;8276852;28;20505;-58
2023/12/03 05:56:47;;;;;;;20.73;12.18;;;;;;;;;;8274099;28;20034;-55
2023/12/03 06:00:47;;;;;;;24.00;12.43;;;;;;;;;;8273723;28;20040;-57
2023/12/03 06:04:47;;;;;;;22.63;12.93;;;;;;;;;;8276857;28;20025;-58
2023/12/03 06:08:48;;;;;;;26.17;13.20;;;;;;;;;;8274226;28;20107;-57
2023/12/03 06:12:48;;;;;;;23.52;13.88;;;;;;;;;;8277431;28;20029;-57
2023/12/03 06:16:48;;;;;;;25.40;12.50;;;;;;;;;;8276738;28;22271;-57
2023/12/03 06:20:48;;;;;;;21.92;11.63;;;;;;;;;;8278273;28;20030;-57
2023/12/03 06:24:49;;;;;;;21.95;13.10;;;;;;;;;;8275325;28;22998;-57
2023/12/03 06:28:49;;;;;;;23.75;13.07;;;;;;;;;;8272084;28;20276;-57
2023/12/03 06:32:49;;;;;;;25.10;13.98;;;;;;;;;;8275383;28;20049;-58
2023/12/03 06:36:49;;;;;;;24.70;12.30;;;;;;;;;;8274429;28;20304;-58
2023/12/03 06:40:49;;;;;;;23.90;13.63;;;;;;;;;;8272543;28;20922;-57
2023/12/03 06:44:51;;;;;;;22.17;12.30;;;;;;;;;;8272510;28;20310;-57
2023/12/03 06:48:51;;;;;;;20.52;12.68;;;;;;;;;;8273509;28;22082;-57
2023/12/03 06:52:51;;;;;;;24.95;13.00;;;;;;;;;;8272752;28;20083;-56
2023/12/03 06:56:51;;;;;;;21.00;11.80;;;;;;;;;;8284636;28;20029;-57
2023/12/03 07:00:51;;;;;;;23.98;12.60;;;;;;;;;;8282050;28;20176;-57
2023/12/03 07:04:51;;;;;;;21.90;12.35;;;;;;;;;;8279786;28;20024;-57
2023/12/03 07:08:52;;;;;;;28.33;14.10;;;;;;;;;;8280126;28;20057;-56
2023/12/03 07:12:52;;;;;;;25.08;13.38;;;;;;;;;;8280939;28;20029;-58
2023/12/03 07:16:52;;;;;;;26.98;14.73;;;;;;;;;;8278654;28;20030;-58
2023/12/03 07:20:52;;;;;;;25.75;12.95;;;;;;;;;;8282891;28;20175;-57
2023/12/03 07:24:53;;;;;;;23.63;12.40;;;;;;;;;;8262926;28;20064;-58
2023/12/03 07:28:53;;;;;;;33.28;15.63;;;;;;;;;;8280500;28;21116;-57
2023/12/03 07:32:53;;;;;;;24.38;12.85;;;;;;;;;;8280665;28;20075;-58
2023/12/03 07:36:54;;;;;;;22.63;13.20;;;;;;;;;;8279827;28;20037;-57
2023/12/03 07:40:54;;;;;;;22.98;13.15;;;;;;;;;;8277037;28;20413;-57
2023/12/03 07:44:54;;;;;;;25.13;13.18;;;;;;;;;;8272995;28;20032;-57
2023/12/03 07:48:54;;;;;;;24.20;12.70;;;;;;;;;;8274884;28;20040;-57
2023/12/03 07:52:54;;;;;;;21.05;11.95;;;;;;;;;;8277515;28;20148;-57
2023/12/03 07:56:54;;;;;;;19.02;11.50;;;;;;;;;;8280236;28;20103;-56
2023/12/03 08:00:55;;;;;;;21.45;12.48;;;;;;;;;;8279089;28;20094;-57
2023/12/03 08:04:55;;;;;;;22.70;11.88;;;;;;;;;;8275714;28;20029;-57
2023/12/03 08:08:55;;;;;;;21.70;12.88;;;;;;;;;;8276715;28;20120;-57
2023/12/03 08:12:55;;;;;;;23.35;12.77;;;;;;;;;;8278015;28;20044;-56
2023/12/03 08:16:56;;;;;;;19.42;11.55;;;;;;;;;;8279121;28;20037;-56
2023/12/03 08:20:56;;;;;;;20.23;11.93;;;;;;;;;;8278477;28;20035;-57
2023/12/03 08:24:56;;;;;;;18.00;10.98;;;;;;;;;;8277181;28;20356;-57
2023/12/03 08:28:56;;;;;;;23.05;12.57;;;;;;;;;;8277744;28;20033;-57
2023/12/03 08:32:56;;;;;;;18.52;10.32;;;;;;;;;;8275239;28;20044;-58
2023/12/03 08:36:57;;;;;;;22.08;11.25;;;;;;;;;;8278584;28;20032;-57
2023/12/03 08:40:57;;;;;;;23.50;13.32;;;;;;;;;;8279127;28;20053;-57
2023/12/03 08:44:57;;;;;;;20.95;13.35;;;;;;;;;;8259896;28;20031;-57
2023/12/03 08:48:57;;;;;;;20.02;11.57;;;;;;;;;;8274218;28;20041;-56
2023/12/03 08:52:58;;;;;;;21.02;12.13;;;;;;;;;;8273237;28;20148;-56
2023/12/03 08:56:59;;;;;;;17.20;10.85;;;;;;;;;;8277384;28;20611;-57
2023/12/03 09:00:59;;;;;;;19.70;11.60;;;;;;;;;;8276285;28;20037;-56
2023/12/03 09:04:59;;;;;;;20.15;11.43;;;;;;;;;;8278406;28;20029;-57
2023/12/03 09:08:59;;;;;;;24.10;13.10;;;;;;;;;;8277140;28;20480;-56
2023/12/03 09:12:59;;;;;;;23.58;14.30;;;;;;;;;;8280679;28;20036;-57
2023/12/03 09:17:00;;;;;;;19.98;11.70;;;;;;;;;;8277151;28;20156;-56
2023/12/03 09:21:00;;;;;;;18.25;10.80;;;;;;;;;;8278438;28;20026;-56
2023/12/03 09:25:00;;;;;;;17.95;10.23;;;;;;;;;;8275532;28;20849;-58
2023/12/03 09:29:01;;;;;;;14.07;9.05;;;;;;;;;;8280002;28;20040;-59
2023/12/03 09:33:01;;;;;;;16.97;10.20;;;;;;;;;;8277589;28;20049;-55
2023/12/03 09:37:01;;;;;;;18.80;10.55;;;;;;;;;;8278819;28;20287;-56
2023/12/03 09:41:06;;;;;;;19.30;11.00;;;;;;;;;;8281151;28;20022;-56
2023/12/03 09:45:09;;;;;;;15.77;9.55;;;;;;;;;;8273238;28;20532;-56
2023/12/03 09:49:12;;;;;;;17.30;9.88;;;;;;;;;;8277406;28;20071;-56
2023/12/03 09:53:14;;;;;;;15.00;9.13;;;;;;;;;;8278244;28;20037;-56
2023/12/03 09:57:15;;;;;;;15.35;9.52;;;;;;;;;;8270936;28;20025;-56
2023/12/03 10:01:16;;;;;;;16.25;10.05;;;;;;;;;;8280863;28;20030;-57
2023/12/03 10:05:16;;;;;;;19.25;9.57;;;;;;;;;;8269096;28;20086;-55
2023/12/03 10:09:17;;;;;;;22.48;13.18;;;;;;;;;;8281798;28;20016;-56
2023/12/03 10:13:18;;;;;;;17.05;10.73;;;;;;;;;;8273457;28;20029;-56
2023/12/03 10:17:19;;;;;;;16.08;9.55;;;;;;;;;;8278437;28;20034;-57
2023/12/03 10:21:19;;;;;;;15.85;9.38;;;;;;;;;;8272793;28;20049;-55
2023/12/03 10:25:26;;;;;;;16.73;10.38;;;;;;;;;;8274181;28;20059;-56
2023/12/03 10:29:27;;;;;;;16.23;9.85;;;;;;;;;;8276962;28;20032;-56
2023/12/03 10:33:27;;;;;;;16.65;9.70;;;;;;;;;;8278119;28;20553;-55
2023/12/03 10:37:27;;;;;;;18.48;11.40;;;;;;;;;;8283566;28;20293;-57
2023/12/03 10:41:28;;;;;;;15.23;9.70;;;;;;;;;;8280610;28;20034;-56
2023/12/03 10:45:28;;;;;;;19.92;10.73;;;;;;;;;;8282408;28;20033;-56
2023/12/03 10:49:31;;;;;;;16.05;8.88;;;;;;;;;;8282040;28;20084;-57
2023/12/03 10:53:32;;;;;;;16.45;9.80;;;;;;;;;;8279635;28;20025;-57
2023/12/03 10:57:33;;;;;;;20.80;12.45;;;;;;;;;;8276397;28;20021;-57
2023/12/03 11:01:36;;;;;;;17.55;10.25;;;;;;;;;;8278542;28;20115;-55
2023/12/03 11:05:43;;;;;;;18.65;10.45;;;;;;;;;;8280417;28;20075;-57
2023/12/03 11:09:43;;;;;;;18.38;10.27;;;;;;;;;;8280839;28;20017;-55
2023/12/03 11:13:44;;;;;;;16.35;9.52;;;;;;;;;;8279393;28;20022;-56
2023/12/03 11:17:45;;;;;;;14.15;9.00;;;;;;;;;;8279807;28;20912;-56
2023/12/03 11:22:05;;;;;;;17.38;10.07;;;;;;;;;;8258404;28;20029;-57
2023/12/03 11:26:10;;;;;;;14.23;8.57;;;;;;;;;;8279070;28;20051;-57
2023/12/03 11:30:11;;;;;;;14.32;8.93;;;;;;;;;;8263414;28;20033;-56
2023/12/03 11:34:11;;;;;;;15.70;8.93;;;;;;;;;;8280873;28;20021;-57
2023/12/03 11:38:25;;;;;;;13.80;8.52;;;;;;;;;;8278017;28;20096;-58
2023/12/03 11:42:25;;;;;;;14.73;8.50;;;;;;;;;;8249089;28;20455;-57
2023/12/03 11:46:27;;;;;;;15.27;8.63;;;;;;;;;;8260357;28;20049;-56
2023/12/03 11:50:28;;;;;;;14.27;8.55;;;;;;;;;;8259260;28;20519;-56
2023/12/03 11:54:38;;;;;;;15.98;9.32;;;;;;;;;;8258328;28;20103;-57
2023/12/03 11:58:38;;;;;;;18.48;9.30;;;;;;;;;;8262264;28;20132;-57
2023/12/03 12:02:38;;;;;;;17.15;9.38;;;;;;;;;;8279034;28;20124;-58
2023/12/03 12:06:38;;;;;;;16.25;9.38;;;;;;;;;;8270498;28;20111;-56
2023/12/03 12:10:38;;;;;;;13.90;8.93;;;;;;;;;;8268690;28;20144;-57
2023/12/03 12:14:39;;;;;;;13.47;8.77;;;;;;;;;;8273331;28;20759;-57
2023/12/03 12:18:39;;;;;;;15.63;9.40;;;;;;;;;;8272326;28;20273;-57
2023/12/03 12:22:39;;;;;;;16.00;9.68;;;;;;;;;;8268111;28;20844;-57
2023/12/03 12:26:39;;;;;;;14.93;9.48;;;;;;;;;;8274023;28;20280;-57
2023/12/03 12:30:40;;;;;;;16.92;9.15;;;;;;;;;;8261983;28;20044;-56
2023/12/03 12:34:40;;;;;;;14.75;9.75;;;;;;;;;;8264294;28;20611;-56
2023/12/03 12:38:41;;;;;;;15.48;8.90;;;;;;;;;;8265081;28;21263;-57
2023/12/03 12:42:42;;;;;;;17.45;9.73;;;;;;;;;;8266488;28;20021;-56
2023/12/03 12:46:56;;;;;;;16.02;9.88;;;;;;;;;;8269344;28;20048;-57
2023/12/03 12:50:56;;;;;;;16.53;10.37;;;;;;;;;;8263870;28;20020;-57
2023/12/03 12:54:58;;;;;;;14.52;9.13;;;;;;;;;;8272940;28;20020;-56
2023/12/03 12:58:59;;;;;;;17.23;9.68;;;;;;;;;;8273546;28;20071;-57
2023/12/03 13:02:59;;;;;;;14.73;8.55;;;;;;;;;;8274050;28;20025;-57
2023/12/03 13:07:01;;;;;;;12.73;8.40;;;;;;;;;;8276924;28;20070;-57
2023/12/03 13:11:01;;;;;;;15.68;9.45;;;;;;;;;;8274954;28;20039;-57
2023/12/03 13:15:01;;;;;;;14.77;9.33;;;;;;;;;;8274216;28;20021;-57
2023/12/03 13:19:01;;;;;;;15.70;9.75;;;;;;;;;;8272482;28;20287;-57
2023/12/03 13:23:02;;;;;;;20.57;9.40;;;;;;;;;;8272711;28;20025;-57
2023/12/03 13:27:02;;;;;;;25.73;12.50;;;;;;;;;;8276422;28;20307;-56
2023/12/03 13:31:02;;;;;;;20.20;11.53;;;;;;;;;;8282701;28;20147;-57
2023/12/03 13:35:03;;;;;;;19.77;11.85;;;;;;;;;;8286282;28;20294;-56
2023/12/03 13:39:04;;;;;;;21.70;12.55;;;;;;;;;;8284932;28;20914;-57
2023/12/03 13:43:04;;;;;;;19.25;11.82;;;;;;;;;;8283858;28;20029;-57
2023/12/03 13:47:04;;;;;;;22.30;12.23;;;;;;;;;;8281603;28;20040;-57
2023/12/03 13:51:04;;;;;;;19.08;11.20;;;;;;;;;;8274787;28;20292;-64
2023/12/03 13:55:05;;;;;;;37.88;18.90;;;;;;;;;;8276062;28;20745;-58
2023/12/03 13:59:05;;;;;;;21.02;11.98;;;;;;;;;;8275615;28;20029;-57
2023/12/03 14:03:05;;;;;;;19.30;12.17;;;;;;;;;;8274135;28;20044;-57
2023/12/03 14:07:06;;;;;;;19.48;11.90;;;;;;;;;;8274810;28;20283;-57
2023/12/03 14:11:06;;;;;;;24.98;13.98;;;;;;;;;;8270970;28;20033;-57
2023/12/03 14:15:07;;;;;;;23.65;12.30;;;;;;;;;;8275340;28;20599;-58
2023/12/03 14:19:07;;;;;;;18.35;10.73;;;;;;;;;;8273651;28;20113;-57
2023/12/03 14:23:07;;;;;;;16.35;10.50;;;;;;;;;;8269131;28;20078;-56
2023/12/03 14:27:08;;;;;;;21.00;12.98;;;;;;;;;;8265005;28;20806;-55
2023/12/03 14:31:08;;;;;;;19.27;11.10;;;;;;;;;;8268108;28;20045;-61
2023/12/03 14:35:10;;;;;;;16.65;10.23;;;;;;;;;;8253251;28;20490;-57
2023/12/03 14:39:15;;;;;;;18.10;11.10;;;;;;;;;;8268888;28;20029;-56
2023/12/03 14:43:15;;;;;;;15.65;9.90;;;;;;;;;;8267548;28;20423;-56
2023/12/03 14:47:16;;;;;;;16.05;10.23;;;;;;;;;;8273186;28;20044;-57
2023/12/03 14:51:19;;;;;;;18.58;11.77;;;;;;;;;;8268861;28;20025;-54
2023/12/03 14:55:19;;;;;;;18.55;11.15;;;;;;;;;;8268884;28;20548;-56
2023/12/03 14:59:20;;;;;;;17.42;10.15;;;;;;;;;;8274214;28;20105;-57
2023/12/03 15:03:20;;;;;;;17.17;10.65;;;;;;;;;;8274498;28;20043;-56
2023/12/03 15:07:20;;;;;;;17.05;10.23;;;;;;;;;;8272277;28;20086;-57
2023/12/03 15:11:20;;;;;;;18.75;11.07;;;;;;;;;;8274281;28;20036;-57
2023/12/03 15:15:20;;;;;;;14.87;9.30;;;;;;;;;;8275081;28;20013;-55
2023/12/03 15:19:21;;;;;;;16.85;10.95;;;;;;;;;;8278171;28;20267;-57
2023/12/03 15:23:21;;;;;;;14.32;9.43;;;;;;;;;;8276500;28;20030;-56
2023/12/03 15:27:21;;;;;;;14.93;9.20;;;;;;;;;;8278328;28;20028;-56
2023/12/03 15:31:21;;;;;;;15.93;9.48;;;;;;;;;;8276657;28;20276;-57
2023/12/03 15:35:22;;;;;;;14.60;9.63;;;;;;;;;;8278128;28;20041;-57
2023/12/03 15:39:22;;;;;;;19.38;10.73;;;;;;;;;;8274569;28;20489;-56
2023/12/03 15:43:22;;;;;;;14.65;9.85;;;;;;;;;;8278844;28;20627;-56
2023/12/03 15:47:22;;;;;;;17.10;10.23;;;;;;;;;;8258081;28;20102;-55
2023/12/03 15:51:23;;;;;;;15.13;9.13;;;;;;;;;;8274962;28;20051;-57
2023/12/03 15:55:23;;;;;;;16.83;9.77;;;;;;;;;;8278161;28;21038;-55
2023/12/03 15:59:23;;;;;;;13.57;7.97;;;;;;;;;;8277522;28;20903;-56
2023/12/03 16:03:23;;;;;;;22.42;9.02;;;;;;;;;;8269971;28;20032;-57
2023/12/03 16:07:24;;;;;;;16.05;8.98;;;;;;;;;;8276924;28;20026;-56
2023/12/03 16:11:24;;;;;;;18.45;10.82;;;;;;;;;;8275978;28;20321;-56
2023/12/03 16:15:24;;;;;;;18.33;11.13;;;;;;;;;;8279334;28;20122;-56
2023/12/03 16:19:24;;;;;;;17.98;11.25;;;;;;;;;;8278180;28;20793;-53
2023/12/03 16:23:25;;;;;;;15.98;10.00;;;;;;;;;;8280864;28;20155;-55
2023/12/03 16:27:25;;;;;;;18.13;10.90;;;;;;;;;;8281293;28;20116;-55
2023/12/03 16:31:25;;;;;;;19.55;11.90;;;;;;;;;;8283229;28;20394;-57
2023/12/03 16:35:25;;;;;;;21.02;12.70;;;;;;;;;;8281893;28;23504;-54
2023/12/03 16:39:26;;;;;;;26.80;13.63;;;;;;;;;;8281631;28;21006;-55
2023/12/03 16:43:28;;;;;;;23.98;13.07;;;;;;;;;;8283761;28;21423;-56
2023/12/03 16:47:28;;;;;;;22.45;13.38;;;;;;;;;;8281908;28;20034;-55
2023/12/03 16:51:29;;;;;;;22.83;14.48;;;;;;;;;;8276892;28;21371;-55
2023/12/03 16:55:31;;;;;;;22.50;13.25;;;;;;;;;;8279243;28;20029;-56
2023/12/03 16:59:31;;;;;;;43.38;19.15;;;;;;;;;;8284082;28;20501;-55
2023/12/03 17:03:32;;;;;;;25.95;14.23;;;;;;;;;;8284270;28;20045;-56
2023/12/03 17:07:32;;;;;;;25.20;14.93;;;;;;;;;;8291052;28;20021;-55
2023/12/03 17:11:32;;;;;;;32.72;17.38;;;;;;;;;;8296166;28;20024;-55
2023/12/03 17:15:34;;;;;;;31.80;17.35;;;;;;;;;;8295146;28;20076;-55
2023/12/03 17:19:35;;;;;;;23.05;13.82;;;;;;;;;;8297860;28;20993;-55
2023/12/03 17:23:35;;;;;;;20.63;12.10;;;;;;;;;;8294507;28;20080;-57
2023/12/03 17:27:35;;;;;;;18.08;11.32;;;;;;;;;;8279849;28;20288;-55
2023/12/03 17:31:35;;;;;;;17.88;11.00;;;;;;;;;;8294215;28;20037;-57
2023/12/03 17:35:37;;;;;;;18.42;10.65;;;;;;;;;;8293662;28;20079;-56
2023/12/03 17:39:38;;;;;;;18.55;11.35;;;;;;;;;;8294425;28;20036;-57
2023/12/03 17:43:38;;;;;;;18.02;10.88;;;;;;;;;;8292199;28;20025;-55
2023/12/03 17:47:38;;;;;;;19.35;11.68;;;;;;;;;;8291168;28;20037;-56
2023/12/03 17:51:40;;;;;;;19.80;11.63;;;;;;;;;;8287148;28;20292;-57
2023/12/03 17:55:40;;;;;;;19.88;12.70;;;;;;;;;;8283574;28;20385;-56
2023/12/03 17:59:40;;;;;;;17.27;10.25;;;;;;;;;;8293222;28;20132;-57
2023/12/03 18:03:40;;;;;;;18.13;10.55;;;;;;;;;;8291592;28;20496;-56
2023/12/03 18:07:40;;;;;;;19.77;11.07;;;;;;;;;;8293051;28;20037;-54
2023/12/03 18:11:41;;;;;;;17.00;11.00;;;;;;;;;;8295388;28;20032;-57
2023/12/03 18:15:41;;;;;;;18.42;10.18;;;;;;;;;;8291105;28;20033;-57
2023/12/03 18:19:41;;;;;;;15.52;9.13;;;;;;;;;;8290213;28;20029;-56
2023/12/03 18:23:42;;;;;;;12.98;8.32;;;;;;;;;;8291307;28;20074;-57
2023/12/03 18:27:42;;;;;;;15.93;9.20;;;;;;;;;;8292108;28;20036;-56
2023/12/03 18:31:44;;;;;;;14.40;8.90;;;;;;;;;;8283539;28;20105;-56
2023/12/03 18:35:45;;;;;;;21.30;10.05;;;;;;;;;;8282361;28;20108;-56
2023/12/03 18:39:45;;;;;;;16.25;11.15;;;;;;;;;;8282034;28;20056;-56
2023/12/03 18:43:45;;;;;;;17.13;11.63;;;;;;;;;;8283630;28;20029;-56
2023/12/03 18:47:46;;;;;;;18.25;11.13;;;;;;;;;;8281402;28;20064;-57
2023/12/03 18:51:46;;;;;;;20.13;11.50;;;;;;;;;;8286120;28;20192;-56
2023/12/03 18:55:50;;;;;;;18.65;11.98;;;;;;;;;;8291102;28;20064;-56
2023/12/03 18:59:52;;;;;;;19.23;11.13;;;;;;;;;;8283691;28;20013;-56
2023/12/03 19:03:52;;;;;;;18.52;10.95;;;;;;;;;;8289267;28;20083;-56
2023/12/03 19:07:59;;;;;;;19.70;11.00;;;;;;;;;;8286295;28;20951;-56
2023/12/03 19:11:59;;;;;;;17.73;10.18;;;;;;;;;;8288066;28;20594;-56
2023/12/03 19:15:59;;;;;;;17.10;10.30;;;;;;;;;;8289299;28;20222;-55
2023/12/03 19:19:59;;;;;;;60.40;33.67;;;;;;;;;;8285522;28;20018;-57
2023/12/03 19:24:00;;;;;;;24.92;13.32;;;;;;;;;;8284007;28;20037;-56
2023/12/03 19:28:00;;;;;;;19.38;10.90;;;;;;;;;;8289991;28;20056;-55
2023/12/03 19:32:00;;;;;;;19.70;12.05;;;;;;;;;;8293286;28;20497;-56
2023/12/03 19:36:00;;;;;;;21.50;12.70;;;;;;;;;;8294539;28;20075;-56
2023/12/03 19:40:01;;;;;;;21.17;13.15;;;;;;;;;;8286781;28;20267;-56
2023/12/03 19:44:01;;;;;;;20.73;13.83;;;;;;;;;;8284967;28;20055;-57
2023/12/03 19:48:01;;;;;;;18.75;10.75;;;;;;;;;;8282156;28;21063;-57
2023/12/03 19:52:01;;;;;;;19.05;11.23;;;;;;;;;;8277205;28;20033;-57
2023/12/03 19:56:02;;;;;;;20.83;12.68;;;;;;;;;;8283258;28;20043;-57
2023/12/03 20:00:02;;;;;;;19.58;11.50;;;;;;;;;;8260833;28;20049;-57
2023/12/03 20:04:04;;;;;;;20.05;11.98;;;;;;;;;;8273623;28;20951;-58
2023/12/03 20:08:06;;;;;;;18.90;11.85;;;;;;;;;;8277464;28;20040;-56
2023/12/03 20:12:06;;;;;;;18.08;10.57;;;;;;;;;;8275808;28;20029;-57
2023/12/03 20:16:06;;;;;;;18.73;11.10;;;;;;;;;;8270477;28;23173;-57
2023/12/03 20:20:07;;;;;;;17.90;10.40;;;;;;;;;;8277619;28;20698;-57
2023/12/03 20:24:07;;;;;;;20.70;10.73;;;;;;;;;;8278497;28;20745;-55
2023/12/03 20:28:08;;;;;;;18.08;10.95;;;;;;;;;;8277674;28;20079;-56
2023/12/03 20:32:08;;;;;;;18.50;11.52;;;;;;;;;;8275660;28;20044;-57
2023/12/03 20:36:11;;;;;;;18.33;11.80;;;;;;;;;;8278117;28;20057;-56
2023/12/03 20:40:12;;;;;;;19.60;12.25;;;;;;;;;;8276574;28;20032;-57
2023/12/03 20:44:12;;;;;;;19.30;11.88;;;;;;;;;;8284258;28;20024;-56
2023/12/03 20:48:13;;;;;;;21.42;12.38;;;;;;;;;;8280657;28;20136;-57
2023/12/03 20:52:14;;;;;;;21.35;11.98;;;;;;;;;;8282122;28;20052;-56
2023/12/03 20:56:14;;;;;;;21.85;12.27;;;;;;;;;;8267706;28;20029;-57
2023/12/03 21:00:14;;;;;;;19.42;11.75;;;;;;;;;;8284265;28;20031;-56
2023/12/03 21:04:15;;;;;;;20.65;12.40;;;;;;;;;;8280823;28;20121;-57
2023/12/03 21:08:15;;;;;;;22.77;12.98;;;;;;;;;;8278661;28;20024;-55
2023/12/03 21:12:15;;;;;;;23.27;14.07;;;;;;;;;;8270253;28;21255;-56
2023/12/03 21:16:16;;;;;;;24.30;13.57;;;;;;;;;;8281361;28;20029;-55
2023/12/03 21:20:16;;;;;;;23.00;13.02;;;;;;;;;;8274790;28;20186;-57
2023/12/03 21:24:16;;;;;;;17.20;10.90;;;;;;;;;;8277121;28;20151;-56
2023/12/03 21:28:21;;;;;;;20.90;12.88;;;;;;;;;;8274991;28;20037;-55
2023/12/03 21:32:22;;;;;;;18.08;11.60;;;;;;;;;;8273962;28;21500;-55
2023/12/03 21:36:22;;;;;;;21.90;11.45;;;;;;;;;;8277959;28;20090;-56
2023/12/03 21:40:23;;;;;;;18.42;11.25;;;;;;;;;;8276418;28;20045;-56
2023/12/03 21:44:23;;;;;;;22.42;12.05;;;;;;;;;;8277300;28;21023;-57
2023/12/03 21:48:23;;;;;;;20.30;12.38;;;;;;;;;;8279685;28;20275;-55
2023/12/03 21:52:24;;;;;;;18.77;12.43;;;;;;;;;;8282360;28;20028;-56
2023/12/03 21:56:25;;;;;;;20.65;12.68;;;;;;;;;;8289749;28;20025;-56
2023/12/03 22:00:25;;;;;;;19.80;13.15;;;;;;;;;;8276226;28;21803;-56
2023/12/03 22:04:27;;;;;;;20.50;12.23;;;;;;;;;;8272902;28;20026;-57
2023/12/03 22:08:27;;;;;;;18.67;11.45;;;;;;;;;;8274223;28;23948;-56
2023/12/03 22:12:27;;;;;;;20.63;12.55;;;;;;;;;;8271825;28;20970;-56
2023/12/03 22:16:27;;;;;;;20.25;12.15;;;;;;;;;;8272703;28;20154;-57
2023/12/03 22:20:27;;;;;;;23.15;13.02;;;;;;;;;;8269052;28;20033;-57
2023/12/03 22:24:28;;;;;;;25.63;14.57;;;;;;;;;;8279477;28;20702;-57
2023/12/03 22:28:28;;;;;;;23.48;13.10;;;;;;;;;;8283377;28;21261;-57
2023/12/03 22:32:28;;;;;;;24.80;14.45;;;;;;;;;;8278280;28;20152;-57
2023/12/03 22:36:28;;;;;;;23.75;15.77;;;;;;;;;;8279747;28;20040;-57
2023/12/03 22:40:29;;;;;;;19.83;12.50;;;;;;;;;;8276309;28;20025;-57
2023/12/03 22:44:29;;;;;;;20.23;11.63;;;;;;;;;;8279350;28;20382;-57
2023/12/03 22:48:30;;;;;;;18.83;11.90;;;;;;;;;;8273098;28;20172;-57
2023/12/03 22:52:30;;;;;;;17.77;11.57;;;;;;;;;;8275635;28;20284;-56
2023/12/03 22:56:31;;;;;;;18.30;10.75;;;;;;;;;;8282839;28;20029;-57
2023/12/03 23:00:32;;;;;;;18.73;10.70;;;;;;;;;;8271769;28;20037;-57
2023/12/03 23:04:32;;;;;;;16.58;10.40;;;;;;;;;;8287107;28;20346;-55
2023/12/03 23:08:32;;;;;;;18.52;10.90;;;;;;;;;;8287048;28;20553;-55
2023/12/03 23:12:32;;;;;;;18.45;11.10;;;;;;;;;;8277950;28;20094;-56
2023/12/03 23:16:40;;;;;;;21.25;12.00;;;;;;;;;;8274392;28;20117;-55
2023/12/03 23:20:41;;;;;;;20.77;12.25;;;;;;;;;;8272815;28;20025;-55